Denver, Colorado
Traffic Map
Current Weather Conditions
Denver, Colorado
Few Clouds
Few Clouds
59°
Feels Like: 59°
Wind Chill: 59° Ceiling: Unl
Heat Index: 59° Visibility: 10mi
Dew Point: 38° Wind: 12mph
Humidity: 47% Direction: 200° (SSW)
Pressure: 30.1in Gusts: 0mph
Raw Report DataKBKF 171058Z 20010KT 10SM FEW200 15/04 A3010 RMK AO2A SLP116 T01500036
Traffic Incident Summary
Active as of:
Severity:
Category:
InformationThere was an issue retrieving the traffic information for this location. Please try a different location or try again shortly.
Advertisements
Track Severe Weather on mobile